sensor_id;sensor_type;location;lat;lon;timestamp;temperature;humidity
292;DHT22;23311;48.776;9.162;2023-01-23T00:01:27;0.80;95.50
292;DHT22;23311;48.776;9.162;2023-01-23T00:03:56;0.70;95.50
292;DHT22;23311;48.776;9.162;2023-01-23T00:06:25;0.70;95.50
292;DHT22;23311;48.776;9.162;2023-01-23T00:08:55;0.70;95.50
292;DHT22;23311;48.776;9.162;2023-01-23T00:11:25;0.70;95.50
292;DHT22;23311;48.776;9.162;2023-01-23T00:13:55;0.70;95.50
292;DHT22;23311;48.776;9.162;2023-01-23T00:16:26;0.60;95.50
292;DHT22;23311;48.776;9.162;2023-01-23T00:18:54;0.60;95.50
292;DHT22;23311;48.776;9.162;2023-01-23T00:21:24;0.60;95.50
292;DHT22;23311;48.776;9.162;2023-01-23T00:23:56;0.60;95.50
292;DHT22;23311;48.776;9.162;2023-01-23T00:26:26;0.60;95.50
292;DHT22;23311;48.776;9.162;2023-01-23T00:28:54;0.60;95.50
292;DHT22;23311;48.776;9.162;2023-01-23T00:31:24;0.60;95.50
292;DHT22;23311;48.776;9.162;2023-01-23T00:33:55;0.60;95.50
292;DHT22;23311;48.776;9.162;2023-01-23T00:36:24;0.70;95.50
292;DHT22;23311;48.776;9.162;2023-01-23T00:38:56;0.60;95.50
292;DHT22;23311;48.776;9.162;2023-01-23T00:41:24;0.60;95.50
292;DHT22;23311;48.776;9.162;2023-01-23T00:43:52;0.60;95.50
292;DHT22;23311;48.776;9.162;2023-01-23T00:46:21;0.60;95.50
292;DHT22;23311;48.776;9.162;2023-01-23T00:48:50;0.60;95.50
292;DHT22;23311;48.776;9.162;2023-01-23T00:51:18;0.60;95.50
292;DHT22;23311;48.776;9.162;2023-01-23T00:53:46;0.50;95.50
292;DHT22;23311;48.776;9.162;2023-01-23T00:56:16;0.60;95.50
292;DHT22;23311;48.776;9.162;2023-01-23T00:58:44;0.60;95.50
292;DHT22;23311;48.776;9.162;2023-01-23T01:01:13;0.50;95.50
292;DHT22;23311;48.776;9.162;2023-01-23T01:03:42;0.50;95.50
292;DHT22;23311;48.776;9.162;2023-01-23T01:06:11;0.50;95.50
292;DHT22;23311;48.776;9.162;2023-01-23T01:08:39;0.50;95.50
292;DHT22;23311;48.776;9.162;2023-01-23T01:11:07;0.50;95.50
292;DHT22;23311;48.776;9.162;2023-01-23T01:13:37;0.40;95.50
292;DHT22;23311;48.776;9.162;2023-01-23T01:16:06;0.50;95.50
292;DHT22;23311;48.776;9.162;2023-01-23T01:18:35;0.40;95.50
292;DHT22;23311;48.776;9.162;2023-01-23T01:21:05;0.50;95.50
292;DHT22;23311;48.776;9.162;2023-01-23T01:23:34;0.60;95.50
292;DHT22;23311;48.776;9.162;2023-01-23T01:26:02;0.60;95.50
292;DHT22;23311;48.776;9.162;2023-01-23T01:28:32;0.70;95.50
292;DHT22;23311;48.776;9.162;2023-01-23T01:31:05;0.70;95.50
292;DHT22;23311;48.776;9.162;2023-01-23T01:33:36;0.70;95.50
292;DHT22;23311;48.776;9.162;2023-01-23T01:36:07;0.80;95.50
292;DHT22;23311;48.776;9.162;2023-01-23T01:38:35;0.80;95.50
292;DHT22;23311;48.776;9.162;2023-01-23T01:41:04;0.80;95.50
292;DHT22;23311;48.776;9.162;2023-01-23T01:43:33;0.90;95.50
292;DHT22;23311;48.776;9.162;2023-01-23T01:46:11;0.90;95.50
292;DHT22;23311;48.776;9.162;2023-01-23T01:48:47;0.90;95.50
292;DHT22;23311;48.776;9.162;2023-01-23T01:51:20;0.90;95.50
292;DHT22;23311;48.776;9.162;2023-01-23T01:53:55;0.90;95.50
292;DHT22;23311;48.776;9.162;2023-01-23T01:56:24;0.90;95.50
292;DHT22;23311;48.776;9.162;2023-01-23T01:58:54;0.90;95.50
292;DHT22;23311;48.776;9.162;2023-01-23T02:01:25;0.80;95.50
292;DHT22;23311;48.776;9.162;2023-01-23T02:03:54;0.90;95.50
292;DHT22;23311;48.776;9.162;2023-01-23T02:06:23;0.90;95.50
292;DHT22;23311;48.776;9.162;2023-01-23T02:08:56;0.90;95.50
292;DHT22;23311;48.776;9.162;2023-01-23T02:11:27;0.90;95.50
292;DHT22;23311;48.776;9.162;2023-01-23T02:13:55;0.90;95.50
292;DHT22;23311;48.776;9.162;2023-01-23T02:16:27;0.90;95.50
292;DHT22;23311;48.776;9.162;2023-01-23T02:18:59;0.90;95.50
292;DHT22;23311;48.776;9.162;2023-01-23T02:21:29;0.90;95.50
292;DHT22;23311;48.776;9.162;2023-01-23T02:24:17;0.90;95.50
292;DHT22;23311;48.776;9.162;2023-01-23T02:26:48;0.90;95.50
292;DHT22;23311;48.776;9.162;2023-01-23T02:29:16;0.90;95.50
292;DHT22;23311;48.776;9.162;2023-01-23T02:31:46;1.00;95.50
292;DHT22;23311;48.776;9.162;2023-01-23T02:34:17;0.90;95.50
292;DHT22;23311;48.776;9.162;2023-01-23T02:36:48;1.00;95.50
292;DHT22;23311;48.776;9.162;2023-01-23T02:39:17;1.00;95.50
292;DHT22;23311;48.776;9.162;2023-01-23T02:41:49;1.00;95.50
292;DHT22;23311;48.776;9.162;2023-01-23T02:44:19;1.00;95.50
292;DHT22;23311;48.776;9.162;2023-01-23T02:46:51;1.00;95.50
292;DHT22;23311;48.776;9.162;2023-01-23T02:49:20;1.00;95.50
292;DHT22;23311;48.776;9.162;2023-01-23T02:51:49;0.90;95.50
292;DHT22;23311;48.776;9.162;2023-01-23T02:54:17;0.90;95.50
292;DHT22;23311;48.776;9.162;2023-01-23T02:56:45;1.00;95.50
292;DHT22;23311;48.776;9.162;2023-01-23T02:59:15;0.90;95.50
292;DHT22;23311;48.776;9.162;2023-01-23T03:02:00;0.90;95.50
292;DHT22;23311;48.776;9.162;2023-01-23T03:04:28;0.90;95.50
292;DHT22;23311;48.776;9.162;2023-01-23T03:06:56;0.90;95.50
292;DHT22;23311;48.776;9.162;2023-01-23T03:09:25;0.90;95.50
292;DHT22;23311;48.776;9.162;2023-01-23T03:11:53;0.80;95.50
292;DHT22;23311;48.776;9.162;2023-01-23T03:14:23;0.90;95.50
292;DHT22;23311;48.776;9.162;2023-01-23T03:16:52;0.90;95.50
292;DHT22;23311;48.776;9.162;2023-01-23T03:19:22;0.90;95.50
292;DHT22;23311;48.776;9.162;2023-01-23T03:21:51;0.90;95.50
292;DHT22;23311;48.776;9.162;2023-01-23T03:24:20;0.90;95.50
292;DHT22;23311;48.776;9.162;2023-01-23T03:26:49;0.90;95.50
292;DHT22;23311;48.776;9.162;2023-01-23T03:29:19;1.00;95.50
292;DHT22;23311;48.776;9.162;2023-01-23T03:32:09;1.00;95.50
292;DHT22;23311;48.776;9.162;2023-01-23T03:34:38;1.00;95.50
292;DHT22;23311;48.776;9.162;2023-01-23T03:37:07;0.90;95.50
292;DHT22;23311;48.776;9.162;2023-01-23T03:39:35;0.90;95.50
292;DHT22;23311;48.776;9.162;2023-01-23T03:42:21;0.80;95.50
292;DHT22;23311;48.776;9.162;2023-01-23T03:44:50;0.90;95.50
292;DHT22;23311;48.776;9.162;2023-01-23T03:47:19;0.90;95.50
292;DHT22;23311;48.776;9.162;2023-01-23T03:49:47;0.80;95.50
292;DHT22;23311;48.776;9.162;2023-01-23T03:52:15;0.80;95.50
292;DHT22;23311;48.776;9.162;2023-01-23T03:54:43;0.80;95.50
292;DHT22;23311;48.776;9.162;2023-01-23T03:57:11;0.80;95.50
292;DHT22;23311;48.776;9.162;2023-01-23T03:59:39;0.80;95.50
292;DHT22;23311;48.776;9.162;2023-01-23T04:02:08;0.80;95.50
292;DHT22;23311;48.776;9.162;2023-01-23T04:04:37;0.80;95.50
292;DHT22;23311;48.776;9.162;2023-01-23T04:07:05;0.80;95.50
292;DHT22;23311;48.776;9.162;2023-01-23T04:09:34;0.80;95.50
292;DHT22;23311;48.776;9.162;2023-01-23T04:12:02;0.90;95.50
292;DHT22;23311;48.776;9.162;2023-01-23T04:14:30;0.90;95.50
292;DHT22;23311;48.776;9.162;2023-01-23T04:17:03;0.90;95.50
292;DHT22;23311;48.776;9.162;2023-01-23T04:19:31;0.90;95.50
292;DHT22;23311;48.776;9.162;2023-01-23T04:22:01;0.90;95.50
292;DHT22;23311;48.776;9.162;2023-01-23T04:24:29;0.90;95.50
292;DHT22;23311;48.776;9.162;2023-01-23T04:26:57;1.00;95.50
292;DHT22;23311;48.776;9.162;2023-01-23T04:29:25;1.00;95.50
292;DHT22;23311;48.776;9.162;2023-01-23T04:31:53;1.00;95.50
292;DHT22;23311;48.776;9.162;2023-01-23T04:34:21;1.00;95.50
292;DHT22;23311;48.776;9.162;2023-01-23T04:36:49;0.90;95.50
292;DHT22;23311;48.776;9.162;2023-01-23T04:39:19;0.90;95.50
292;DHT22;23311;48.776;9.162;2023-01-23T04:41:47;1.00;95.50
292;DHT22;23311;48.776;9.162;2023-01-23T04:44:14;0.90;95.50
292;DHT22;23311;48.776;9.162;2023-01-23T04:46:49;0.90;95.50
292;DHT22;23311;48.776;9.162;2023-01-23T04:49:19;0.90;95.50
292;DHT22;23311;48.776;9.162;2023-01-23T04:51:48;0.90;95.50
292;DHT22;23311;48.776;9.162;2023-01-23T04:54:17;0.80;95.50
292;DHT22;23311;48.776;9.162;2023-01-23T04:56:46;0.90;95.50
292;DHT22;23311;48.776;9.162;2023-01-23T04:59:15;0.90;95.50
292;DHT22;23311;48.776;9.162;2023-01-23T05:01:43;1.00;95.50
292;DHT22;23311;48.776;9.162;2023-01-23T05:04:12;1.00;95.50
292;DHT22;23311;48.776;9.162;2023-01-23T05:06:40;1.00;95.50
292;DHT22;23311;48.776;9.162;2023-01-23T05:09:08;1.00;95.50
292;DHT22;23311;48.776;9.162;2023-01-23T05:11:36;1.00;95.50
292;DHT22;23311;48.776;9.162;2023-01-23T05:14:05;0.90;95.50
292;DHT22;23311;48.776;9.162;2023-01-23T05:16:33;0.90;95.50
292;DHT22;23311;48.776;9.162;2023-01-23T05:19:01;0.90;95.50
292;DHT22;23311;48.776;9.162;2023-01-23T05:21:30;1.00;95.50
292;DHT22;23311;48.776;9.162;2023-01-23T05:23:58;1.00;95.50
292;DHT22;23311;48.776;9.162;2023-01-23T05:26:26;1.00;95.50
292;DHT22;23311;48.776;9.162;2023-01-23T05:28:54;1.00;95.50
292;DHT22;23311;48.776;9.162;2023-01-23T05:31:23;1.00;95.50
292;DHT22;23311;48.776;9.162;2023-01-23T05:33:51;1.00;95.50
292;DHT22;23311;48.776;9.162;2023-01-23T05:36:19;1.10;95.50
292;DHT22;23311;48.776;9.162;2023-01-23T05:38:47;1.00;95.50
292;DHT22;23311;48.776;9.162;2023-01-23T05:41:15;1.00;95.50
292;DHT22;23311;48.776;9.162;2023-01-23T05:43:43;1.00;95.50
292;DHT22;23311;48.776;9.162;2023-01-23T05:46:11;1.00;95.50
292;DHT22;23311;48.776;9.162;2023-01-23T05:48:41;1.00;95.50
292;DHT22;23311;48.776;9.162;2023-01-23T05:51:09;1.00;95.50
292;DHT22;23311;48.776;9.162;2023-01-23T05:53:37;1.00;95.50
292;DHT22;23311;48.776;9.162;2023-01-23T05:56:06;1.00;95.50
292;DHT22;23311;48.776;9.162;2023-01-23T05:58:34;1.00;95.50
292;DHT22;23311;48.776;9.162;2023-01-23T06:01:03;1.00;95.50
292;DHT22;23311;48.776;9.162;2023-01-23T06:03:31;1.00;95.50
292;DHT22;23311;48.776;9.162;2023-01-23T06:06:01;1.00;95.50
292;DHT22;23311;48.776;9.162;2023-01-23T06:08:29;1.00;95.50
292;DHT22;23311;48.776;9.162;2023-01-23T06:10:58;1.00;95.50
292;DHT22;23311;48.776;9.162;2023-01-23T06:13:26;1.00;95.50
292;DHT22;23311;48.776;9.162;2023-01-23T06:15:55;1.00;95.50
292;DHT22;23311;48.776;9.162;2023-01-23T06:18:24;1.10;95.50
292;DHT22;23311;48.776;9.162;2023-01-23T06:20:56;1.10;95.50
292;DHT22;23311;48.776;9.162;2023-01-23T06:23:26;1.10;95.50
292;DHT22;23311;48.776;9.162;2023-01-23T06:25:58;1.10;95.50
292;DHT22;23311;48.776;9.162;2023-01-23T06:28:26;1.10;95.50
292;DHT22;23311;48.776;9.162;2023-01-23T06:30:54;1.00;95.50
292;DHT22;23311;48.776;9.162;2023-01-23T06:33:27;1.00;95.50
292;DHT22;23311;48.776;9.162;2023-01-23T06:35:58;1.00;95.50
292;DHT22;23311;48.776;9.162;2023-01-23T06:38:27;1.00;95.50
292;DHT22;23311;48.776;9.162;2023-01-23T06:40:56;1.10;95.50
292;DHT22;23311;48.776;9.162;2023-01-23T06:43:24;1.10;95.50
292;DHT22;23311;48.776;9.162;2023-01-23T06:45:52;1.10;95.50
292;DHT22;23311;48.776;9.162;2023-01-23T06:48:20;1.10;95.50
292;DHT22;23311;48.776;9.162;2023-01-23T06:50:48;1.10;95.50
292;DHT22;23311;48.776;9.162;2023-01-23T06:53:17;1.10;95.50
292;DHT22;23311;48.776;9.162;2023-01-23T06:55:46;1.10;95.50
292;DHT22;23311;48.776;9.162;2023-01-23T06:58:14;1.10;95.50
292;DHT22;23311;48.776;9.162;2023-01-23T07:00:42;1.00;95.50
292;DHT22;23311;48.776;9.162;2023-01-23T07:03:11;1.00;95.50
292;DHT22;23311;48.776;9.162;2023-01-23T07:05:39;1.00;95.50
292;DHT22;23311;48.776;9.162;2023-01-23T07:08:09;1.00;95.50
292;DHT22;23311;48.776;9.162;2023-01-23T07:10:37;1.00;95.50
292;DHT22;23311;48.776;9.162;2023-01-23T07:13:10;1.10;95.50
292;DHT22;23311;48.776;9.162;2023-01-23T07:15:38;1.10;95.50
292;DHT22;23311;48.776;9.162;2023-01-23T07:18:07;1.20;95.50
292;DHT22;23311;48.776;9.162;2023-01-23T07:20:36;1.20;95.50
292;DHT22;23311;48.776;9.162;2023-01-23T07:23:04;1.20;95.50
292;DHT22;23311;48.776;9.162;2023-01-23T07:25:32;1.10;95.50
292;DHT22;23311;48.776;9.162;2023-01-23T07:28:00;1.20;95.50
292;DHT22;23311;48.776;9.162;2023-01-23T07:30:29;1.20;95.50
292;DHT22;23311;48.776;9.162;2023-01-23T07:32:58;1.20;95.50
292;DHT22;23311;48.776;9.162;2023-01-23T07:35:26;1.10;95.50
292;DHT22;23311;48.776;9.162;2023-01-23T07:37:55;1.10;95.50
292;DHT22;23311;48.776;9.162;2023-01-23T07:40:23;1.20;95.50
292;DHT22;23311;48.776;9.162;2023-01-23T07:42:51;1.20;95.50
292;DHT22;23311;48.776;9.162;2023-01-23T07:45:19;1.20;95.50
292;DHT22;23311;48.776;9.162;2023-01-23T07:47:48;1.20;95.50
292;DHT22;23311;48.776;9.162;2023-01-23T07:50:17;1.20;95.50
292;DHT22;23311;48.776;9.162;2023-01-23T07:52:45;1.30;95.50
292;DHT22;23311;48.776;9.162;2023-01-23T07:55:13;1.30;95.50
292;DHT22;23311;48.776;9.162;2023-01-23T07:57:41;1.30;95.50
292;DHT22;23311;48.776;9.162;2023-01-23T08:00:10;1.30;95.50
292;DHT22;23311;48.776;9.162;2023-01-23T08:02:38;1.30;95.50
292;DHT22;23311;48.776;9.162;2023-01-23T08:05:08;1.40;95.50
292;DHT22;23311;48.776;9.162;2023-01-23T08:07:36;1.30;95.50
292;DHT22;23311;48.776;9.162;2023-01-23T08:10:05;1.40;95.50
292;DHT22;23311;48.776;9.162;2023-01-23T08:12:34;1.40;95.50
292;DHT22;23311;48.776;9.162;2023-01-23T08:15:02;1.40;95.50
292;DHT22;23311;48.776;9.162;2023-01-23T08:17:30;1.40;95.50
292;DHT22;23311;48.776;9.162;2023-01-23T08:19:58;1.40;95.50
292;DHT22;23311;48.776;9.162;2023-01-23T08:22:28;1.40;95.50
292;DHT22;23311;48.776;9.162;2023-01-23T08:24:56;1.40;95.50
292;DHT22;23311;48.776;9.162;2023-01-23T08:27:24;1.50;95.50
292;DHT22;23311;48.776;9.162;2023-01-23T08:29:52;1.50;95.50
292;DHT22;23311;48.776;9.162;2023-01-23T08:32:20;1.50;95.50
292;DHT22;23311;48.776;9.162;2023-01-23T08:34:48;1.60;95.50
292;DHT22;23311;48.776;9.162;2023-01-23T08:37:16;1.60;95.50
292;DHT22;23311;48.776;9.162;2023-01-23T08:39:46;1.60;95.50
292;DHT22;23311;48.776;9.162;2023-01-23T08:42:14;1.60;95.50
292;DHT22;23311;48.776;9.162;2023-01-23T08:44:42;1.60;95.50
292;DHT22;23311;48.776;9.162;2023-01-23T08:47:10;1.50;95.50
292;DHT22;23311;48.776;9.162;2023-01-23T08:49:38;1.60;95.50
292;DHT22;23311;48.776;9.162;2023-01-23T08:52:06;1.50;95.50
292;DHT22;23311;48.776;9.162;2023-01-23T08:54:34;1.40;95.50
292;DHT22;23311;48.776;9.162;2023-01-23T08:57:04;1.40;95.50
292;DHT22;23311;48.776;9.162;2023-01-23T08:59:32;1.40;95.50
292;DHT22;23311;48.776;9.162;2023-01-23T09:01:59;1.40;95.50
292;DHT22;23311;48.776;9.162;2023-01-23T09:04:28;1.40;95.50
292;DHT22;23311;48.776;9.162;2023-01-23T09:06:56;1.50;95.50
292;DHT22;23311;48.776;9.162;2023-01-23T09:09:24;1.60;95.50
292;DHT22;23311;48.776;9.162;2023-01-23T09:11:53;1.70;95.50
292;DHT22;23311;48.776;9.162;2023-01-23T09:14:22;1.80;95.50
292;DHT22;23311;48.776;9.162;2023-01-23T09:16:50;1.80;95.50
292;DHT22;23311;48.776;9.162;2023-01-23T09:19:18;1.70;95.50
292;DHT22;23311;48.776;9.162;2023-01-23T09:21:46;1.80;95.50
292;DHT22;23311;48.776;9.162;2023-01-23T09:24:15;1.90;95.50
292;DHT22;23311;48.776;9.162;2023-01-23T09:26:43;2.10;95.50
292;DHT22;23311;48.776;9.162;2023-01-23T09:29:11;2.10;95.50
292;DHT22;23311;48.776;9.162;2023-01-23T09:31:40;2.10;95.50
292;DHT22;23311;48.776;9.162;2023-01-23T09:34:08;2.10;95.50
292;DHT22;23311;48.776;9.162;2023-01-23T09:36:36;2.20;95.50
292;DHT22;23311;48.776;9.162;2023-01-23T09:39:09;2.20;95.50
292;DHT22;23311;48.776;9.162;2023-01-23T09:41:37;2.20;95.50
292;DHT22;23311;48.776;9.162;2023-01-23T09:44:11;2.20;95.50
292;DHT22;23311;48.776;9.162;2023-01-23T09:46:47;2.10;95.50
292;DHT22;23311;48.776;9.162;2023-01-23T09:49:23;2.00;95.50
292;DHT22;23311;48.776;9.162;2023-01-23T09:51:55;2.00;95.50
292;DHT22;23311;48.776;9.162;2023-01-23T09:54:33;2.10;95.50
292;DHT22;23311;48.776;9.162;2023-01-23T09:57:10;2.10;95.50
292;DHT22;23311;48.776;9.162;2023-01-23T09:59:40;2.10;95.50
292;DHT22;23311;48.776;9.162;2023-01-23T10:02:27;2.10;95.50
292;DHT22;23311;48.776;9.162;2023-01-23T10:04:56;2.10;95.50
292;DHT22;23311;48.776;9.162;2023-01-23T10:07:38;2.10;95.50
292;DHT22;23311;48.776;9.162;2023-01-23T10:10:30;2.10;95.50
292;DHT22;23311;48.776;9.162;2023-01-23T10:13:06;2.20;95.50
292;DHT22;23311;48.776;9.162;2023-01-23T10:15:50;2.40;95.50
292;DHT22;23311;48.776;9.162;2023-01-23T10:18:24;2.60;95.50
292;DHT22;23311;48.776;9.162;2023-01-23T10:21:02;2.50;95.50
292;DHT22;23311;48.776;9.162;2023-01-23T10:23:40;2.50;95.50
292;DHT22;23311;48.776;9.162;2023-01-23T10:26:14;2.50;95.50
292;DHT22;23311;48.776;9.162;2023-01-23T10:28:45;2.50;95.50
292;DHT22;23311;48.776;9.162;2023-01-23T10:31:24;2.40;95.50
292;DHT22;23311;48.776;9.162;2023-01-23T10:34:01;2.60;95.50
292;DHT22;23311;48.776;9.162;2023-01-23T10:36:35;2.70;95.50
292;DHT22;23311;48.776;9.162;2023-01-23T10:39:24;3.00;95.50
292;DHT22;23311;48.776;9.162;2023-01-23T10:41:53;3.30;95.50
292;DHT22;23311;48.776;9.162;2023-01-23T10:44:28;3.20;95.50
292;DHT22;23311;48.776;9.162;2023-01-23T10:47:00;3.00;95.50
292;DHT22;23311;48.776;9.162;2023-01-23T10:49:32;2.80;95.50
292;DHT22;23311;48.776;9.162;2023-01-23T10:52:02;2.70;95.50
292;DHT22;23311;48.776;9.162;2023-01-23T10:54:44;2.70;95.50
292;DHT22;23311;48.776;9.162;2023-01-23T10:57:20;2.70;95.50
292;DHT22;23311;48.776;9.162;2023-01-23T10:59:54;2.70;95.50
292;DHT22;23311;48.776;9.162;2023-01-23T11:02:26;2.60;95.50
292;DHT22;23311;48.776;9.162;2023-01-23T11:04:57;2.70;95.50
292;DHT22;23311;48.776;9.162;2023-01-23T11:07:26;2.60;95.50
292;DHT22;23311;48.776;9.162;2023-01-23T11:09:56;2.50;95.50
292;DHT22;23311;48.776;9.162;2023-01-23T11:12:26;2.50;95.50
292;DHT22;23311;48.776;9.162;2023-01-23T11:15:10;2.70;95.50
292;DHT22;23311;48.776;9.162;2023-01-23T11:17:41;2.90;95.50
292;DHT22;23311;48.776;9.162;2023-01-23T11:20:23;2.80;95.50
292;DHT22;23311;48.776;9.162;2023-01-23T11:23:03;2.90;95.50
292;DHT22;23311;48.776;9.162;2023-01-23T11:25:35;3.20;95.50
292;DHT22;23311;48.776;9.162;2023-01-23T11:28:18;3.20;95.50
292;DHT22;23311;48.776;9.162;2023-01-23T11:30:51;3.10;95.50
292;DHT22;23311;48.776;9.162;2023-01-23T11:33:41;3.10;95.50
292;DHT22;23311;48.776;9.162;2023-01-23T11:36:30;3.20;95.50
292;DHT22;23311;48.776;9.162;2023-01-23T11:39:08;3.40;95.50
292;DHT22;23311;48.776;9.162;2023-01-23T11:41:43;3.50;95.50
292;DHT22;23311;48.776;9.162;2023-01-23T11:44:16;3.30;95.50
292;DHT22;23311;48.776;9.162;2023-01-23T11:47:10;3.20;95.50
292;DHT22;23311;48.776;9.162;2023-01-23T11:50:00;3.20;95.50
292;DHT22;23311;48.776;9.162;2023-01-23T11:52:45;3.00;95.50
292;DHT22;23311;48.776;9.162;2023-01-23T11:55:36;2.90;95.50
292;DHT22;23311;48.776;9.162;2023-01-23T11:58:16;2.80;95.50
292;DHT22;23311;48.776;9.162;2023-01-23T12:00:55;2.90;95.50
292;DHT22;23311;48.776;9.162;2023-01-23T12:04:00;2.70;95.50
292;DHT22;23311;48.776;9.162;2023-01-23T12:06:38;2.60;95.50
292;DHT22;23311;48.776;9.162;2023-01-23T12:09:14;2.70;95.50
292;DHT22;23311;48.776;9.162;2023-01-23T12:11:53;2.90;95.50
292;DHT22;23311;48.776;9.162;2023-01-23T12:14:26;3.00;95.50
292;DHT22;23311;48.776;9.162;2023-01-23T12:17:04;3.10;95.50
292;DHT22;23311;48.776;9.162;2023-01-23T12:22:48;3.00;95.50
292;DHT22;23311;48.776;9.162;2023-01-23T12:25:28;2.90;95.50
292;DHT22;23311;48.776;9.162;2023-01-23T12:28:03;3.00;95.50
292;DHT22;23311;48.776;9.162;2023-01-23T12:33:48;3.20;95.50
292;DHT22;23311;48.776;9.162;2023-01-23T12:36:33;3.40;95.50
292;DHT22;23311;48.776;9.162;2023-01-23T12:39:24;3.60;95.50
292;DHT22;23311;48.776;9.162;2023-01-23T12:42:02;3.50;95.50
292;DHT22;23311;48.776;9.162;2023-01-23T12:44:34;3.60;95.50
292;DHT22;23311;48.776;9.162;2023-01-23T12:47:06;3.70;95.50
292;DHT22;23311;48.776;9.162;2023-01-23T12:49:38;3.50;95.50
292;DHT22;23311;48.776;9.162;2023-01-23T12:52:10;3.20;95.50
292;DHT22;23311;48.776;9.162;2023-01-23T12:54:43;3.00;95.50
292;DHT22;23311;48.776;9.162;2023-01-23T12:57:17;3.00;95.50
292;DHT22;23311;48.776;9.162;2023-01-23T13:00:36;3.00;95.50
292;DHT22;23311;48.776;9.162;2023-01-23T13:03:27;3.20;95.50
292;DHT22;23311;48.776;9.162;2023-01-23T13:06:26;3.20;95.50
292;DHT22;23311;48.776;9.162;2023-01-23T13:08:58;3.20;95.50
292;DHT22;23311;48.776;9.162;2023-01-23T13:11:49;3.10;95.50
292;DHT22;23311;48.776;9.162;2023-01-23T13:14:34;3.20;95.50
292;DHT22;23311;48.776;9.162;2023-01-23T13:17:30;3.40;95.50
292;DHT22;23311;48.776;9.162;2023-01-23T13:20:20;3.60;95.50
292;DHT22;23311;48.776;9.162;2023-01-23T13:23:26;3.80;95.50
292;DHT22;23311;48.776;9.162;2023-01-23T13:28:58;3.30;95.50
292;DHT22;23311;48.776;9.162;2023-01-23T13:31:40;3.30;95.50
292;DHT22;23311;48.776;9.162;2023-01-23T13:34:36;3.20;95.50
292;DHT22;23311;48.776;9.162;2023-01-23T13:40:19;3.20;95.50
292;DHT22;23311;48.776;9.162;2023-01-23T13:42:48;3.30;95.50
292;DHT22;23311;48.776;9.162;2023-01-23T13:45:25;3.50;95.50
292;DHT22;23311;48.776;9.162;2023-01-23T13:51:40;3.50;95.50
292;DHT22;23311;48.776;9.162;2023-01-23T13:54:26;3.40;95.50
292;DHT22;23311;48.776;9.162;2023-01-23T13:57:26;3.50;95.50
292;DHT22;23311;48.776;9.162;2023-01-23T14:00:14;3.60;95.50
292;DHT22;23311;48.776;9.162;2023-01-23T14:03:01;3.50;95.50
292;DHT22;23311;48.776;9.162;2023-01-23T14:06:16;3.50;95.50
292;DHT22;23311;48.776;9.162;2023-01-23T14:08:59;3.30;95.50
292;DHT22;23311;48.776;9.162;2023-01-23T14:11:42;3.30;95.50
292;DHT22;23311;48.776;9.162;2023-01-23T14:14:25;3.30;95.50
292;DHT22;23311;48.776;9.162;2023-01-23T14:17:38;3.40;95.50
292;DHT22;23311;48.776;9.162;2023-01-23T14:20:20;3.30;95.50
292;DHT22;23311;48.776;9.162;2023-01-23T14:22:52;3.10;95.50
292;DHT22;23311;48.776;9.162;2023-01-23T14:25:22;3.10;95.50
292;DHT22;23311;48.776;9.162;2023-01-23T14:28:01;3.20;95.50
292;DHT22;23311;48.776;9.162;2023-01-23T14:30:30;3.40;95.50
292;DHT22;23311;48.776;9.162;2023-01-23T14:32:58;3.40;95.50
292;DHT22;23311;48.776;9.162;2023-01-23T14:35:28;3.40;95.50
292;DHT22;23311;48.776;9.162;2023-01-23T14:37:58;3.30;95.50
292;DHT22;23311;48.776;9.162;2023-01-23T14:40:28;3.30;95.50
292;DHT22;23311;48.776;9.162;2023-01-23T14:43:17;3.20;95.50
292;DHT22;23311;48.776;9.162;2023-01-23T14:45:47;3.20;95.50
292;DHT22;23311;48.776;9.162;2023-01-23T14:48:16;3.20;95.50
292;DHT22;23311;48.776;9.162;2023-01-23T14:50:45;3.10;95.50
292;DHT22;23311;48.776;9.162;2023-01-23T14:53:14;3.20;95.50
292;DHT22;23311;48.776;9.162;2023-01-23T14:55:46;3.20;95.50
292;DHT22;23311;48.776;9.162;2023-01-23T14:58:20;3.20;95.50
292;DHT22;23311;48.776;9.162;2023-01-23T15:00:49;3.20;95.50
292;DHT22;23311;48.776;9.162;2023-01-23T15:03:39;3.20;95.50
292;DHT22;23311;48.776;9.162;2023-01-23T15:06:17;3.30;95.50
292;DHT22;23311;48.776;9.162;2023-01-23T15:08:46;3.30;95.50
292;DHT22;23311;48.776;9.162;2023-01-23T15:11:23;3.20;95.50
292;DHT22;23311;48.776;9.162;2023-01-23T15:13:54;3.20;95.50
292;DHT22;23311;48.776;9.162;2023-01-23T15:16:30;3.20;95.50
292;DHT22;23311;48.776;9.162;2023-01-23T15:19:02;3.20;95.50
292;DHT22;23311;48.776;9.162;2023-01-23T15:21:34;3.20;95.50
292;DHT22;23311;48.776;9.162;2023-01-23T15:24:17;3.20;95.50
292;DHT22;23311;48.776;9.162;2023-01-23T15:27:01;3.10;95.50
292;DHT22;23311;48.776;9.162;2023-01-23T15:29:31;3.10;95.50
292;DHT22;23311;48.776;9.162;2023-01-23T15:32:00;3.10;95.50
292;DHT22;23311;48.776;9.162;2023-01-23T15:34:30;3.10;95.50
292;DHT22;23311;48.776;9.162;2023-01-23T15:37:02;3.10;95.50
292;DHT22;23311;48.776;9.162;2023-01-23T15:39:37;3.10;95.50
292;DHT22;23311;48.776;9.162;2023-01-23T15:42:24;3.10;95.50
292;DHT22;23311;48.776;9.162;2023-01-23T15:44:52;3.10;95.50
292;DHT22;23311;48.776;9.162;2023-01-23T15:47:21;3.10;95.50
292;DHT22;23311;48.776;9.162;2023-01-23T15:49:49;2.90;95.50
292;DHT22;23311;48.776;9.162;2023-01-23T15:52:20;2.90;95.50
292;DHT22;23311;48.776;9.162;2023-01-23T15:54:50;2.90;95.50
292;DHT22;23311;48.776;9.162;2023-01-23T15:57:19;2.90;95.50
292;DHT22;23311;48.776;9.162;2023-01-23T15:59:48;2.90;95.50
292;DHT22;23311;48.776;9.162;2023-01-23T16:02:17;2.90;95.50
292;DHT22;23311;48.776;9.162;2023-01-23T16:05:06;2.90;95.50
292;DHT22;23311;48.776;9.162;2023-01-23T16:07:36;2.80;95.50
292;DHT22;23311;48.776;9.162;2023-01-23T16:10:15;2.80;95.50
292;DHT22;23311;48.776;9.162;2023-01-23T16:12:44;2.70;95.50
292;DHT22;23311;48.776;9.162;2023-01-23T16:15:17;2.70;95.50
292;DHT22;23311;48.776;9.162;2023-01-23T16:17:46;2.80;95.50
292;DHT22;23311;48.776;9.162;2023-01-23T16:20:15;2.80;95.50
292;DHT22;23311;48.776;9.162;2023-01-23T16:22:44;2.70;95.50
292;DHT22;23311;48.776;9.162;2023-01-23T16:25:17;2.70;95.50
292;DHT22;23311;48.776;9.162;2023-01-23T16:27:47;2.60;95.50
292;DHT22;23311;48.776;9.162;2023-01-23T16:30:19;2.70;95.50
292;DHT22;23311;48.776;9.162;2023-01-23T16:32:47;2.70;95.50
292;DHT22;23311;48.776;9.162;2023-01-23T16:35:15;2.70;95.50
292;DHT22;23311;48.776;9.162;2023-01-23T16:37:45;2.70;95.50
292;DHT22;23311;48.776;9.162;2023-01-23T16:40:15;2.70;95.50
292;DHT22;23311;48.776;9.162;2023-01-23T16:42:46;2.70;95.50
292;DHT22;23311;48.776;9.162;2023-01-23T16:45:17;2.80;95.50
292;DHT22;23311;48.776;9.162;2023-01-23T16:47:45;2.80;95.50
292;DHT22;23311;48.776;9.162;2023-01-23T16:50:15;2.80;95.50
292;DHT22;23311;48.776;9.162;2023-01-23T16:52:49;2.80;95.50
292;DHT22;23311;48.776;9.162;2023-01-23T16:55:20;2.80;95.50
292;DHT22;23311;48.776;9.162;2023-01-23T16:57:52;2.80;95.50
292;DHT22;23311;48.776;9.162;2023-01-23T17:00:23;2.80;95.50
292;DHT22;23311;48.776;9.162;2023-01-23T17:03:03;2.80;95.50
292;DHT22;23311;48.776;9.162;2023-01-23T17:05:33;2.70;95.50
292;DHT22;23311;48.776;9.162;2023-01-23T17:08:13;2.60;95.50